Flight Track Log - Related Links

Times and Time Zones

All times are in EDT time to prevent confusion due to time zone crossing. See the N42HN flight status page for this flight to view local times or setup timezone preferences in your user account.

Time Position Orientation Groundspeed Altitude Reporting Facility
EDT Latitude Longitude Course Direction KTS MPH feet Rate Location/Type
Sat 10:53:49 AM 26.0731 -80.1250 88° East 205 236 1,200  Level Miami Center
Sat 10:55:15 AM 26.0756 -80.0186 88° East 268 308 4,100 2,043 Climbing Miami Center
Sat 10:56:10 AM 26.0792 -79.9403 87° East 278 320 6,000 2,757 Climbing Miami Center
Sat 10:57:06 AM 26.0681 -79.8775 101° East 269 310 9,200 2,328 Climbing Miami Center
Sat 10:58:06 AM 26.0508 -79.7983 104° East 269 310 10,500 1,350 Climbing Miami Center
Sat 10:59:06 AM 26.0319 -79.6892 101° East 302 348 11,900 2,200 Climbing Miami Center
Sat 11:00:06 AM 26.0131 -79.5825 101° East 334 384 14,900 2,900 Climbing Miami Center
Sat 11:01:06 AM 25.9817 -79.4825 109° East 348 400 17,700 2,000 Climbing Miami Center
Sat 11:02:06 AM 25.9164 -79.3931 129° Southeast 348 400 18,900 1,400 Climbing Miami Center
Sat 11:03:06 AM 25.8447 -79.2994 130° Southeast 375 432 20,500 2,000 Climbing Miami Center
Sat 11:04:06 AM 25.7817 -79.2033 126° Southeast 387 445 22,900 2,300 Climbing Miami Center
Sat 11:05:06 AM 25.7119 -79.1144 131° Southeast 387 445 25,100 1,800 Climbing Miami Center
Sat 11:06:06 AM 25.6506 -79.0233 127° Southeast 381 438 26,500 1,200 Climbing Miami Center
Sat 11:07:06 AM 25.5767 -78.9322 132° Southeast 381 438 27,500 1,100 Climbing Miami Center
Sat 11:08:06 AM 25.5092 -78.8367 128° Southeast 388 447 28,700 1,300 Climbing Miami Center
Sat 11:09:06 AM 25.4414 -78.7414 128° Southeast 393 452 30,100 1,250 Climbing Miami Center
Sat 11:10:06 AM 25.3736 -78.6458 128° Southeast 393 452 31,200 1,000 Climbing Miami Center
Sat 11:11:06 AM 25.3078 -78.5461 126° Southeast 393 452 32,100 900 Climbing Miami Center
Sat 11:12:06 AM 25.2336 -78.4508 131° Southeast 403 464 33,000 850 Climbing Miami Center
Sat 11:13:06 AM 25.1636 -78.3536 128° Southeast 403 464 33,800 850 Climbing Miami Center
Sat 11:14:06 AM 25.0894 -78.2564 130° Southeast 403 464 34,700 850 Climbing Miami Center
Sat 11:15:06 AM 25.0192 -78.1592 129° Southeast 403 464 35,500 800 Climbing Miami Center
Sat 11:16:06 AM 24.9447 -78.0622 130° Southeast 403 464 36,300 750 Climbing Miami Center
Sat 11:17:06 AM 24.8744 -77.9631 128° Southeast 403 464 37,000 350 Climbing Miami Center
Sat 11:18:06 AM 24.8019 -77.8661 129° Southeast 403 464 37,000  Level Miami Center
Sat 11:19:06 AM 24.7253 -77.7625 129° Southeast 413 475 37,000  Level Miami Center
Sat 11:20:06 AM 24.6508 -77.6592 128° Southeast 424 488 37,000 550 Level Miami Center
Sat 11:21:06 AM 24.5761 -77.5603 130° Southeast 424 488 38,100 900 Climbing Miami Center
Sat 11:22:06 AM 24.5033 -77.4642 130° Southeast 419 482 38,800 600 Climbing Miami Center
Sat 11:23:06 AM 24.4306 -77.3656 129° Southeast 419 482 39,300 450 Climbing Miami Center
Sat 11:24:06 AM 24.3597 -77.2717 130° Southeast 409 471 39,700 350 Climbing Miami Center
Sat 11:25:06 AM 24.2867 -77.1758 130° Southeast 409 471 40,000 350 Climbing Miami Center
Sat 11:26:06 AM 24.2158 -77.0775 128° Southeast 409 471 40,400 400 Climbing Miami Center
Sat 11:27:06 AM 24.1428 -76.9842 131° Southeast 409 471 40,800 300 Climbing Miami Center
Sat 11:28:06 AM 24.0739 -76.8908 129° Southeast 402 463 41,000 100 Climbing Miami Center
Sat 11:29:06 AM 23.9944 -76.7883 130° Southeast 397 457 41,000  Level Miami Center
Sat 11:30:06 AM 23.9233 -76.6931 129° Southeast 397 457 41,000  Level Miami Center
Sat 11:31:06 AM 23.8522 -76.5975 129° Southeast 402 463 41,000  Level Miami Center
Sat 11:32:06 AM 23.7789 -76.5000 129° Southeast 402 463 41,000  Level Miami Center
Sat 11:33:06 AM 23.7053 -76.4006 129° Southeast 407 468 41,000  Level Miami Center
Sat 11:34:06 AM 23.6297 -76.3056 131° Southeast 412 474 41,000 -150 Level Miami Center
Sat 11:35:06 AM 23.5583 -76.2083 129° Southeast 412 474 40,700 -1,000 Descending Miami Center
Sat 11:36:06 AM 23.4806 -76.1114 131° Southeast 412 474 39,000 -850 Descending Miami Center
Sat 11:37:06 AM 23.4006 -76.0122 131° Southeast 418 481 39,000  Level Miami Center
Sat 11:38:06 AM 23.3292 -75.9222 131° Southeast 436 502 39,000  Level Miami Center
Sat 11:39:06 AM 23.2511 -75.8186 129° Southeast 441 507 39,000  Level Miami Center
Sat 11:40:06 AM 23.1750 -75.7153 129° Southeast 441 507 39,000  Level Miami Center
Sat 11:41:06 AM 23.1011 -75.6167 129° Southeast 435 501 39,000  Level Miami Center
Sat 11:42:06 AM 23.0231 -75.5158 130° Southeast 425 489 39,000  Level Miami Center
Sat 11:43:06 AM 22.9469 -75.4175 130° Southeast 425 489 39,000  Level Miami Center
Sat 11:44:06 AM 22.8708 -75.3214 131° Southeast 425 489 39,000  Level Miami Center
Sat 11:45:06 AM 22.7944 -75.2231 130° Southeast 430 495 39,000  Level Miami Center
Sat 11:46:06 AM 22.7161 -75.1206 130° Southeast 430 495 39,000  Level Miami Center
Sat 11:47:06 AM 22.6375 -75.0225 131° Southeast 430 495 39,000  Level Miami Center
Sat 11:48:06 AM 22.5589 -74.9200 130° Southeast 430 495 39,000  Level Miami Center
Sat 11:49:06 AM 22.4803 -74.8181 130° Southeast 430 495 39,000  Level Miami Center
Sat 11:50:06 AM 22.4017 -74.7181 130° Southeast 430 495 39,000  Level Miami Center
Sat 11:51:06 AM 22.3208 -74.6228 133° Southeast 430 495 39,000  Level Miami Center
Sat 11:52:06 AM 22.2400 -74.5189 130° Southeast 435 501 39,000  Level Miami Center
Sat 11:53:06 AM 22.1589 -74.4172 131° Southeast 441 507 39,000  Level Miami Center
Sat 11:54:06 AM 22.0781 -74.3156 131° Southeast 441 507 39,000  Level Miami Center
Sat 11:55:06 AM 21.9969 -74.2142 131° Southeast 446 513 39,000  Level Miami Center
Sat 11:56:06 AM 21.9114 -74.1039 130° Southeast 446 513 39,000  Level Miami Center
Sat 11:57:06 AM 21.8322 -73.9983 129° Southeast 451 519 39,000 -50 Level Miami Center
Sat 11:58:06 AM 21.7531 -73.8972 130° Southeast 451 519 38,900 -650 Descending Miami Center
Sat 11:59:06 AM 21.6717 -73.7961 131° Southeast 451 519 37,700 -1,400 Descending Miami Center
Sat 12:00:06 PM 21.5903 -73.6953 131° Southeast 451 519 36,100 -1,250 Descending Miami Center
Sat 12:01:06 PM 21.5067 -73.5925 131° Southeast 451 519 35,200 -800 Descending Miami Center
Sat 12:02:06 PM 21.4294 -73.4942 130° Southeast 451 519 34,500 -800 Descending Miami Center
Sat 12:03:06 PM 21.3458 -73.3936 132° Southeast 446 513 33,600 -850 Descending Miami Center
Sat 12:04:06 PM 21.2642 -73.2933 131° Southeast 451 519 32,800 -850 Descending Miami Center
Sat 12:05:06 PM 21.1825 -73.1931 131° Southeast 451 519 31,900 -950 Descending Miami Center
Sat 12:06:06 PM 21.0967 -73.0911 132° Southeast 456 525 30,900 -900 Descending Miami Center
Sat 12:07:06 PM 21.0189 -72.9886 129° Southeast 456 525 30,100 -950 Descending Miami Center
Sat 12:08:06 PM 20.9350 -72.8867 131° Southeast 451 519 29,000 -1,050 Descending Miami Center
Sat 12:09:06 PM 20.8508 -72.7847 131° Southeast 451 519 28,000 -950 Descending Miami Center
Sat 12:10:06 PM 20.7667 -72.6786 130° Southeast 456 525 27,100 -950 Descending Miami Center
Sat 12:11:06 PM 20.6825 -72.5747 131° Southeast 456 525 26,100 -900 Descending Miami Center
Sat 12:12:06 PM 20.5983 -72.4733 132° Southeast 456 525 25,300 -550 Descending Miami Center
Sat 12:13:06 PM 20.5161 -72.3719 131° Southeast 451 519 25,000 -136 Descending Miami Center
Sat 12:14:18 PM 20.4342 -72.2728 131° Southeast 451 519 25,000  Level Miami Center
Sat 12:16:00 PM 20.3608 -72.0963 114° Southeast  Level FlightAware Approximate
Sat 12:23:00 PM 19.9831 -71.4061 127° Southeast  Level FlightAware Approximate
Sat 12:24:00 PM 19.9179 -71.3149 127° Southeast  Level FlightAware Approximate
Sat 12:25:00 PM 19.8540 -71.2225 125° Southeast  Level FlightAware Approximate
Sat 12:26:00 PM 19.7916 -71.1291 125° Southeast  Level FlightAware Approximate
Sat 12:27:00 PM 19.7228 -71.0409 130° Southeast  Level FlightAware Approximate
Sat 12:28:00 PM 19.6530 -70.9537 130° Southeast  Level FlightAware Approximate
Sat 12:29:00 PM 19.5904 -70.8605 125° Southeast  Level FlightAware Approximate
Sat 12:30:00 PM 19.5264 -70.7685 129° Southeast  Level FlightAware Approximate
Sat 12:31:00 PM 19.4593 -70.6790 128° Southeast  Level FlightAware Approximate
Sat 12:32:00 PM 19.4061 -70.6047 North  Level Estimated
Sat 12:33:00 PM 19.4061 -70.6047 North  Level Estimated
Sat 12:34:00 PM 19.4061 -70.6047 North  Level Estimated
Sat 12:35:00 PM 19.4061 -70.6047 North  Level Estimated
Sat 12:36:00 PM 19.4061 -70.6047 North  Level Estimated
Sat 12:37:00 PM 19.4061 -70.6047 North  Level Estimated
Sat 12:38:00 PM 19.4061 -70.6047 North  Level Estimated
Sat 12:39:00 PM 19.4061 -70.6047 North  Level Estimated
Sat 12:40:00 PM 19.4061 -70.6047 North  Level Estimated
Sat 12:41:00 PM 19.4061 -70.6047 North  Level Estimated
Sat 12:42:00 PM 19.4061 -70.6047 North  Level Estimated
Sat 12:43:00 PM 19.4061 -70.6047 North  Level Estimated
Sat 12:44:00 PM 19.4061 -70.6047 North  Level Estimated
Sat 12:45:00 PM 19.4061 -70.6047 North  Level Estimated
Sat 12:46:00 PM 19.4061 -70.6047 North  Level Estimated
Sat 12:47:00 PM 19.4061 -70.6047 North  Level Estimated
Sat 12:48:00 PM 19.4061 -70.6047 North  Level Estimated

Login

Don't have an account? Register now (free) for customized features, flight alerts, and more!